createdAt,value
2016-09-12T00:00:16.135Z,0
2016-09-12T00:00:36.734Z,0
2016-09-12T00:00:57.292Z,0
2016-09-12T00:01:17.881Z,0
2016-09-12T00:01:38.445Z,0
2016-09-12T00:01:59.004Z,0
2016-09-12T00:02:19.603Z,0
2016-09-12T00:02:40.196Z,0
2016-09-12T00:03:00.795Z,0
2016-09-12T00:03:21.434Z,0
2016-09-12T00:03:42.178Z,0
2016-09-12T00:04:02.949Z,0
2016-09-12T00:04:23.920Z,0
2016-09-12T00:04:44.535Z,0
2016-09-12T00:05:05.605Z,0
2016-09-12T00:05:26.214Z,0
2016-09-12T00:05:46.801Z,0
2016-09-12T00:06:07.443Z,0
2016-09-12T00:06:28.158Z,0
2016-09-12T00:06:48.923Z,0
2016-09-12T00:07:09.500Z,0
2016-09-12T00:07:30.233Z,0
2016-09-12T00:07:50.883Z,0
2016-09-12T00:08:11.476Z,0
2016-09-12T00:08:32.162Z,0
2016-09-12T00:08:52.738Z,0
2016-09-12T00:09:13.381Z,0
2016-09-12T00:09:33.960Z,0
2016-09-12T00:09:54.696Z,0
2016-09-12T00:10:15.457Z,0
2016-09-12T00:10:36.105Z,0
2016-09-12T00:10:56.748Z,0
2016-09-12T00:11:17.422Z,0
2016-09-12T00:11:38.114Z,0
2016-09-12T00:12:00.588Z,0
2016-09-12T00:12:22.046Z,0
2016-09-12T00:12:42.575Z,0
2016-09-12T00:13:03.151Z,0
2016-09-12T00:13:23.766Z,0
2016-09-12T00:13:44.331Z,0
2016-09-12T00:14:04.993Z,0
2016-09-12T00:14:25.530Z,0
2016-09-12T00:14:46.110Z,0
2016-09-12T00:15:07.540Z,0
2016-09-12T00:15:28.087Z,0
2016-09-12T00:15:48.743Z,0
2016-09-12T00:16:09.514Z,0
2016-09-12T00:16:30.241Z,0
2016-09-12T00:16:50.840Z,0
2016-09-12T00:17:11.594Z,0
2016-09-12T00:17:32.147Z,0
2016-09-12T00:17:52.720Z,0
2016-09-12T00:18:13.549Z,0
2016-09-12T00:18:34.274Z,0
2016-09-12T00:18:54.842Z,0
2016-09-12T00:19:15.657Z,0
2016-09-12T00:19:36.241Z,0
2016-09-12T00:19:56.843Z,0
2016-09-12T00:20:17.406Z,0
2016-09-12T00:20:38.032Z,0
2016-09-12T00:20:58.867Z,0
2016-09-12T00:21:19.475Z,0
2016-09-12T00:21:40.092Z,0
2016-09-12T00:22:00.669Z,0
2016-09-12T00:22:21.503Z,0
2016-09-12T00:22:42.052Z,0
2016-09-12T00:23:02.733Z,0
2016-09-12T00:23:23.555Z,0
2016-09-12T00:23:44.227Z,0
2016-09-12T00:24:05.017Z,0
2016-09-12T00:24:25.645Z,0
2016-09-12T00:24:46.341Z,0
2016-09-12T00:25:07.846Z,0
2016-09-12T00:25:28.545Z,0
2016-09-12T00:25:49.209Z,0
2016-09-12T00:26:09.748Z,0
2016-09-12T00:26:30.358Z,0
2016-09-12T00:26:51.330Z,0
2016-09-12T00:27:11.925Z,0
2016-09-12T00:27:32.488Z,0
2016-09-12T00:27:53.023Z,0
2016-09-12T00:28:13.644Z,0
2016-09-12T00:28:34.238Z,0
2016-09-12T00:28:54.798Z,0
2016-09-12T00:29:15.438Z,0
2016-09-12T00:29:36.083Z,0
2016-09-12T00:29:56.725Z,0
2016-09-12T00:30:18.396Z,0
2016-09-12T00:30:38.998Z,0
2016-09-12T00:30:59.830Z,0
2016-09-12T00:31:20.685Z,0
2016-09-12T00:31:41.430Z,0
2016-09-12T00:32:01.973Z,0
2016-09-12T00:32:22.570Z,0
2016-09-12T00:32:43.242Z,0
2016-09-12T00:33:03.824Z,0
2016-09-12T00:33:24.395Z,0
2016-09-12T00:33:44.946Z,0
2016-09-12T00:34:05.544Z,0
2016-09-12T00:34:26.175Z,0
2016-09-12T00:34:46.749Z,0
2016-09-12T00:35:07.364Z,0
2016-09-12T00:35:27.922Z,0
2016-09-12T00:35:48.510Z,0
2016-09-12T00:36:09.104Z,0
2016-09-12T00:36:29.672Z,0
2016-09-12T00:36:50.254Z,0
2016-09-12T00:37:10.814Z,0
2016-09-12T00:37:31.484Z,0
2016-09-12T00:37:52.104Z,0
2016-09-12T00:38:13.260Z,0
2016-09-12T00:38:34.016Z,0
2016-09-12T00:38:54.621Z,0
2016-09-12T00:39:15.397Z,0
2016-09-12T00:39:35.983Z,0
2016-09-12T00:39:56.563Z,0
2016-09-12T00:40:17.195Z,0
2016-09-12T00:40:37.773Z,0
2016-09-12T00:40:58.845Z,0
2016-09-12T00:41:19.400Z,0
2016-09-12T00:41:39.950Z,0
2016-09-12T00:42:00.698Z,0
2016-09-12T00:42:21.375Z,0
2016-09-12T00:42:41.962Z,0
2016-09-12T00:43:02.782Z,0
2016-09-12T00:43:23.421Z,0
2016-09-12T00:43:43.978Z,0
2016-09-12T00:44:04.602Z,0
2016-09-12T00:44:25.198Z,0
2016-09-12T00:44:45.957Z,0
2016-09-12T00:45:06.506Z,0
2016-09-12T00:45:27.158Z,0
2016-09-12T00:45:47.780Z,0
2016-09-12T00:46:08.338Z,0
2016-09-12T00:46:29.080Z,0
2016-09-12T00:46:49.722Z,0
2016-09-12T00:47:10.446Z,0
2016-09-12T00:47:31.054Z,0
2016-09-12T00:47:51.608Z,0
2016-09-12T00:48:12.332Z,0
2016-09-12T00:48:32.953Z,0
2016-09-12T00:48:53.526Z,0
2016-09-12T00:49:14.203Z,0
2016-09-12T00:49:34.756Z,0
2016-09-12T00:49:55.317Z,0
2016-09-12T00:50:15.956Z,0
2016-09-12T00:50:36.606Z,0
2016-09-12T00:50:57.333Z,0
2016-09-12T00:51:17.986Z,0
2016-09-12T00:51:38.706Z,0
2016-09-12T00:51:59.276Z,0
2016-09-12T00:52:19.898Z,0
2016-09-12T00:52:40.535Z,0
2016-09-12T00:53:01.106Z,0
2016-09-12T00:53:21.696Z,0
2016-09-12T00:53:42.247Z,0
2016-09-12T00:54:03.535Z,0
2016-09-12T00:54:24.340Z,0
2016-09-12T00:54:44.987Z,0
2016-09-12T00:55:05.778Z,0
2016-09-12T00:55:26.419Z,0
2016-09-12T00:55:46.974Z,0
2016-09-12T00:56:07.540Z,0
2016-09-12T00:56:28.101Z,0
2016-09-12T00:56:48.651Z,0
2016-09-12T00:57:09.370Z,0
2016-09-12T00:57:29.947Z,0
2016-09-12T00:57:50.498Z,0
2016-09-12T00:58:11.087Z,0
2016-09-12T00:58:31.872Z,0
2016-09-12T00:58:52.435Z,0
2016-09-12T00:59:13.929Z,0
2016-09-12T00:59:34.533Z,0
2016-09-12T00:59:55.075Z,0
2016-09-12T01:00:16.173Z,0
2016-09-12T01:00:36.885Z,0
2016-09-12T01:00:57.453Z,0
2016-09-12T01:01:18.207Z,0
2016-09-12T01:01:38.835Z,0
2016-09-12T01:01:59.419Z,0
2016-09-12T01:02:20.112Z,0
2016-09-12T01:02:40.704Z,0
2016-09-12T01:03:01.599Z,0
2016-09-12T01:03:22.427Z,0
2016-09-12T01:03:43.036Z,0
2016-09-12T01:04:03.639Z,0
2016-09-12T01:04:24.192Z,0
2016-09-12T01:04:44.764Z,0
2016-09-12T01:05:05.834Z,0
2016-09-12T01:05:26.394Z,0
2016-09-12T01:05:47.063Z,0
2016-09-12T01:06:07.903Z,0
2016-09-12T01:07:50.770Z,0
2016-09-12T01:08:11.375Z,0
2016-09-12T01:08:31.984Z,0
2016-09-12T01:08:52.532Z,0
2016-09-12T01:09:13.080Z,0
2016-09-12T01:09:33.630Z,0
2016-09-12T01:09:54.264Z,0
2016-09-12T01:10:15.125Z,0
2016-09-12T01:10:35.707Z,0
2016-09-12T01:10:56.269Z,0
2016-09-12T01:11:16.844Z,0
2016-09-12T01:11:37.411Z,0
2016-09-12T01:11:58.011Z,0
2016-09-12T01:12:18.724Z,0
2016-09-12T01:12:39.486Z,0
2016-09-12T01:13:00.120Z,0
2016-09-12T01:13:20.758Z,0
2016-09-12T01:13:41.552Z,0
2016-09-12T01:14:02.171Z,0
2016-09-12T01:14:22.829Z,0
2016-09-12T01:14:43.430Z,0
2016-09-12T01:15:04.024Z,0
2016-09-12T01:15:24.795Z,0
2016-09-12T01:15:45.358Z,0
2016-09-12T01:16:06.035Z,0
2016-09-12T01:16:26.604Z,0
2016-09-12T01:16:47.180Z,0
2016-09-12T01:17:07.836Z,0
2016-09-12T01:17:28.707Z,0
2016-09-12T01:17:49.268Z,0
2016-09-12T01:18:09.891Z,0
2016-09-12T01:18:30.441Z,0
2016-09-12T01:18:51.078Z,0
2016-09-12T01:19:11.916Z,0
2016-09-12T01:19:32.486Z,0
2016-09-12T01:19:53.224Z,0
2016-09-12T01:20:15.300Z,0
2016-09-12T01:20:35.885Z,0
2016-09-12T01:20:56.461Z,0
2016-09-12T01:21:17.065Z,0
2016-09-12T01:21:37.700Z,0
2016-09-12T01:21:58.310Z,0
2016-09-12T01:22:19.014Z,0
2016-09-12T01:22:39.599Z,0
2016-09-12T01:23:00.211Z,0
2016-09-12T01:23:20.966Z,0
2016-09-12T01:23:41.565Z,0
2016-09-12T01:24:02.143Z,0
2016-09-12T01:24:22.703Z,0
2016-09-12T01:24:43.411Z,0
2016-09-12T01:25:04.444Z,0
2016-09-12T01:25:24.993Z,0
2016-09-12T01:25:45.623Z,0
2016-09-12T01:26:06.206Z,0
2016-09-12T01:26:26.816Z,0
2016-09-12T01:26:47.373Z,0
2016-09-12T01:27:07.941Z,0
2016-09-12T01:27:28.605Z,0
2016-09-12T01:27:49.248Z,0
2016-09-12T01:28:09.863Z,0
2016-09-12T01:28:30.527Z,0
2016-09-12T01:28:51.092Z,0
2016-09-12T01:29:11.650Z,0
2016-09-12T01:29:32.246Z,0
2016-09-12T01:29:52.893Z,0
2016-09-12T01:30:13.504Z,0
2016-09-12T01:30:34.093Z,0
2016-09-12T01:30:54.845Z,0
2016-09-12T01:31:15.475Z,0
2016-09-12T01:31:36.046Z,0
2016-09-12T01:31:56.772Z,0
2016-09-12T01:32:17.644Z,0
2016-09-12T01:32:38.190Z,0
2016-09-12T01:32:58.767Z,0
2016-09-12T01:33:20.035Z,0
2016-09-12T01:33:40.603Z,0
2016-09-12T01:34:01.217Z,0
2016-09-12T01:34:21.873Z,0
2016-09-12T01:34:42.653Z,0
2016-09-12T01:35:03.325Z,0
2016-09-12T01:35:23.880Z,0
2016-09-12T01:35:44.425Z,0
2016-09-12T01:36:04.961Z,0
2016-09-12T01:36:25.549Z,0
2016-09-12T01:36:46.234Z,0
2016-09-12T01:37:06.870Z,0
2016-09-12T01:37:27.443Z,0
2016-09-12T01:37:48.189Z,0
2016-09-12T01:38:08.972Z,0
2016-09-12T01:38:29.519Z,0
2016-09-12T01:38:50.179Z,0
2016-09-12T01:39:10.746Z,0
2016-09-12T01:39:31.289Z,0
2016-09-12T01:39:51.873Z,0
2016-09-12T01:40:12.466Z,0
2016-09-12T01:40:33.167Z,0
2016-09-12T01:40:53.834Z,0
2016-09-12T01:41:14.562Z,0
2016-09-12T01:41:35.715Z,0
2016-09-12T01:41:56.443Z,0
2016-09-12T01:42:17.005Z,0
2016-09-12T01:42:37.670Z,0
2016-09-12T01:42:58.222Z,0
2016-09-12T01:43:18.935Z,0
2016-09-12T01:43:39.619Z,0
2016-09-12T01:44:00.235Z,0
2016-09-12T01:44:20.828Z,0
2016-09-12T01:44:41.477Z,0
2016-09-12T01:45:02.206Z,0
2016-09-12T01:45:22.777Z,0
2016-09-12T01:45:43.487Z,0
2016-09-12T01:46:04.045Z,0
2016-09-12T01:46:24.654Z,0
2016-09-12T01:46:45.234Z,0
2016-09-12T01:47:05.892Z,0
2016-09-12T01:47:26.691Z,0
2016-09-12T01:47:47.322Z,0
2016-09-12T01:48:07.893Z,0
2016-09-12T01:48:28.495Z,0
2016-09-12T01:48:49.063Z,0
2016-09-12T01:49:09.712Z,0
2016-09-12T01:49:30.307Z,0
2016-09-12T01:49:50.860Z,0
2016-09-12T01:50:11.450Z,0
2016-09-12T01:50:32.043Z,0
2016-09-12T01:50:52.644Z,0
2016-09-12T01:51:13.361Z,0
2016-09-12T01:51:34.025Z,0
2016-09-12T01:51:54.655Z,0
2016-09-12T01:52:15.519Z,0
2016-09-12T01:52:36.352Z,0
2016-09-12T01:52:57.207Z,0
2016-09-12T01:53:18.355Z,0
2016-09-12T01:53:38.998Z,0
2016-09-12T01:53:59.785Z,0
2016-09-12T01:54:20.409Z,0
2016-09-12T01:54:41.039Z,0
2016-09-12T01:55:03.253Z,0
2016-09-12T01:55:23.823Z,0
2016-09-12T01:55:44.439Z,0
2016-09-12T01:56:05.093Z,0
2016-09-12T01:56:26.617Z,0
2016-09-12T01:56:47.327Z,0
2016-09-12T01:57:07.994Z,0
2016-09-12T01:57:28.608Z,0
2016-09-12T01:57:49.209Z,0
2016-09-12T01:58:09.761Z,0
2016-09-12T01:58:30.382Z,0
2016-09-12T01:58:50.934Z,0
2016-09-12T01:59:11.496Z,0
2016-09-12T01:59:32.123Z,0
2016-09-12T01:59:52.745Z,0
2016-09-12T02:00:13.437Z,0
2016-09-12T02:00:34.035Z,0
2016-09-12T02:00:54.749Z,0
2016-09-12T02:01:15.359Z,0
2016-09-12T02:01:35.971Z,0
2016-09-12T02:01:56.551Z,0
2016-09-12T02:02:17.209Z,0
2016-09-12T02:02:37.799Z,0
2016-09-12T02:02:58.381Z,0
2016-09-12T02:03:19.813Z,0
2016-09-12T02:03:40.641Z,0
2016-09-12T02:04:01.938Z,0
2016-09-12T02:04:24.172Z,0
2016-09-12T02:04:44.746Z,0
2016-09-12T02:05:05.406Z,0
2016-09-12T02:05:26.033Z,0
2016-09-12T02:05:46.578Z,0
2016-09-12T02:06:07.177Z,0
2016-09-12T02:06:27.746Z,0
2016-09-12T02:06:48.440Z,0
2016-09-12T02:07:09.150Z,0
2016-09-12T02:07:29.692Z,0
2016-09-12T02:07:50.272Z,0
2016-09-12T02:08:10.863Z,0
2016-09-12T02:08:31.554Z,0
2016-09-12T02:08:52.407Z,0
2016-09-12T02:09:13.680Z,0
2016-09-12T02:09:34.309Z,0
2016-09-12T02:09:54.865Z,0
2016-09-12T02:10:15.535Z,0
2016-09-12T02:10:36.610Z,0
2016-09-12T02:10:57.177Z,0
2016-09-12T02:11:17.757Z,0
2016-09-12T02:11:38.348Z,0
2016-09-12T02:11:58.921Z,0
2016-09-12T02:12:19.594Z,0
2016-09-12T02:12:40.176Z,0
2016-09-12T02:13:00.831Z,0
2016-09-12T02:13:21.387Z,0
2016-09-12T02:13:42.169Z,0
2016-09-12T02:14:02.795Z,0
2016-09-12T02:14:23.429Z,0
2016-09-12T02:14:43.986Z,0
2016-09-12T02:15:05.005Z,0
2016-09-12T02:15:25.559Z,0
2016-09-12T02:15:46.140Z,0
2016-09-12T02:16:06.929Z,0
2016-09-12T02:16:27.547Z,0
2016-09-12T02:16:48.223Z,0
2016-09-12T02:17:08.930Z,0
2016-09-12T02:17:29.547Z,0
2016-09-12T02:17:50.124Z,0
2016-09-12T02:18:10.707Z,0
2016-09-12T02:18:31.259Z,0
2016-09-12T02:18:51.968Z,0
2016-09-12T02:19:12.561Z,0
2016-09-12T02:19:33.213Z,0
2016-09-12T02:19:53.960Z,0
2016-09-12T02:20:15.148Z,0
2016-09-12T02:20:35.766Z,0
2016-09-12T02:20:56.596Z,0
2016-09-12T02:21:17.234Z,0
2016-09-12T02:21:37.912Z,0
2016-09-12T02:21:58.493Z,0
2016-09-12T02:22:19.503Z,0
2016-09-12T02:22:40.277Z,0
2016-09-12T02:23:01.057Z,0
2016-09-12T02:23:21.706Z,0
2016-09-12T02:23:42.347Z,0
2016-09-12T02:24:03.062Z,0
2016-09-12T02:24:23.850Z,0
2016-09-12T02:24:44.544Z,0
2016-09-12T02:25:05.214Z,0
2016-09-12T02:25:25.792Z,0
2016-09-12T02:25:46.377Z,0
2016-09-12T02:26:07.081Z,0
2016-09-12T02:26:27.669Z,0
2016-09-12T02:26:48.280Z,0
2016-09-12T02:27:08.944Z,0
2016-09-12T02:27:29.598Z,0
2016-09-12T02:27:50.168Z,0
2016-09-12T02:28:10.743Z,0
2016-09-12T02:28:31.422Z,0
2016-09-12T02:28:52.061Z,0
2016-09-12T02:29:12.648Z,0
2016-09-12T02:29:33.386Z,0
2016-09-12T02:29:54.011Z,0
2016-09-12T02:30:15.078Z,0
2016-09-12T02:30:35.661Z,0
2016-09-12T02:30:56.219Z,0
2016-09-12T02:31:16.809Z,0
2016-09-12T02:31:38.018Z,0
2016-09-12T02:31:58.788Z,0
2016-09-12T02:32:20.506Z,0
2016-09-12T02:32:41.081Z,0
2016-09-12T02:33:01.663Z,0
2016-09-12T02:33:22.232Z,0
2016-09-12T02:33:42.819Z,0
2016-09-12T02:34:03.497Z,0
2016-09-12T02:34:24.058Z,0
2016-09-12T02:34:44.642Z,0
2016-09-12T02:35:05.316Z,0
2016-09-12T02:35:25.926Z,0
2016-09-12T02:35:46.474Z,0
2016-09-12T02:36:07.104Z,0
2016-09-12T02:36:27.716Z,0
2016-09-12T02:36:48.294Z,0
2016-09-12T02:37:08.995Z,0
2016-09-12T02:37:29.682Z,0
2016-09-12T02:37:50.291Z,0
2016-09-12T02:38:10.890Z,0
2016-09-12T02:38:31.454Z,0
2016-09-12T02:38:52.297Z,0
2016-09-12T02:39:12.902Z,0
2016-09-12T02:39:33.506Z,0
2016-09-12T02:39:54.169Z,0
2016-09-12T02:40:14.945Z,0
2016-09-12T02:40:35.540Z,0
2016-09-12T02:40:56.094Z,0
2016-09-12T02:41:17.018Z,0
2016-09-12T02:41:37.611Z,0
2016-09-12T02:41:58.182Z,0
2016-09-12T02:42:18.769Z,0
2016-09-12T02:42:39.333Z,0
2016-09-12T02:42:59.891Z,0
2016-09-12T02:43:20.473Z,0
2016-09-12T02:43:41.019Z,0
2016-09-12T02:44:01.573Z,0
2016-09-12T02:44:22.475Z,0
2016-09-12T02:44:43.059Z,0
2016-09-12T02:45:03.868Z,0
2016-09-12T02:45:24.492Z,0
2016-09-12T02:45:45.062Z,0
2016-09-12T02:46:05.661Z,0
2016-09-12T02:46:26.298Z,0
2016-09-12T02:46:46.858Z,0
2016-09-12T02:47:07.454Z,0
2016-09-12T02:47:28.032Z,0
2016-09-12T02:47:48.615Z,0
2016-09-12T02:48:09.181Z,0
2016-09-12T02:48:29.776Z,0
2016-09-12T02:48:50.416Z,0
2016-09-12T02:49:11.092Z,0
2016-09-12T02:49:31.666Z,0
2016-09-12T02:49:52.330Z,0
2016-09-12T02:50:14.319Z,0
2016-09-12T02:50:34.877Z,0
2016-09-12T02:50:55.479Z,0
2016-09-12T02:51:16.180Z,0
2016-09-12T02:51:36.767Z,0
2016-09-12T02:51:57.378Z,0
2016-09-12T02:52:18.327Z,0
2016-09-12T02:52:38.889Z,0
2016-09-12T02:52:59.487Z,0
2016-09-12T02:53:20.061Z,0
2016-09-12T02:53:40.660Z,0
2016-09-12T02:54:01.210Z,0
2016-09-12T02:54:22.569Z,0
2016-09-12T02:54:43.193Z,0
2016-09-12T02:55:04.777Z,0
2016-09-12T02:55:25.520Z,0
2016-09-12T02:55:46.165Z,0
2016-09-12T02:56:06.893Z,0
2016-09-12T02:56:27.638Z,0
2016-09-12T02:56:48.225Z,0
2016-09-12T02:57:08.880Z,0
2016-09-12T02:57:29.477Z,0
2016-09-12T02:57:50.062Z,0
2016-09-12T02:58:10.704Z,0
2016-09-12T02:58:31.272Z,0
2016-09-12T02:58:51.828Z,0
2016-09-12T02:59:12.384Z,0
2016-09-12T02:59:32.933Z,0
2016-09-12T02:59:53.534Z,0
2016-09-12T03:00:14.402Z,0
2016-09-12T03:00:35.193Z,0
2016-09-12T03:00:55.890Z,0
2016-09-12T03:01:16.516Z,0
2016-09-12T03:01:37.185Z,0
2016-09-12T03:01:57.821Z,0
2016-09-12T03:02:18.673Z,0
2016-09-12T03:02:39.257Z,0
2016-09-12T03:02:59.819Z,0
2016-09-12T03:03:20.409Z,0
2016-09-12T03:03:41.149Z,0
2016-09-12T03:04:01.755Z,0
2016-09-12T03:04:22.412Z,0
2016-09-12T03:04:42.970Z,0
2016-09-12T03:05:03.544Z,0
2016-09-12T03:05:24.213Z,0
2016-09-12T03:05:44.975Z,0
2016-09-12T03:06:05.516Z,0
2016-09-12T03:06:26.090Z,0
2016-09-12T03:06:46.672Z,0
2016-09-12T03:07:07.620Z,0
2016-09-12T03:07:28.219Z,0
2016-09-12T03:07:48.849Z,0
2016-09-12T03:08:09.472Z,0
2016-09-12T03:08:30.114Z,0
2016-09-12T03:08:50.675Z,0
2016-09-12T03:09:11.244Z,0
2016-09-12T03:09:31.800Z,0
2016-09-12T03:09:52.391Z,0
2016-09-12T03:10:13.101Z,0
2016-09-12T03:10:33.682Z,0
2016-09-12T03:10:54.491Z,0
2016-09-12T03:11:15.047Z,0
2016-09-12T03:11:35.621Z,0
2016-09-12T03:11:56.344Z,0
2016-09-12T03:12:17.032Z,0
2016-09-12T03:12:37.723Z,0
2016-09-12T03:12:58.273Z,0
2016-09-12T03:13:19.027Z,0
2016-09-12T03:13:39.678Z,0
2016-09-12T03:14:01.081Z,0
2016-09-12T03:14:21.720Z,0
2016-09-12T03:14:42.375Z,0
2016-09-12T03:15:03.003Z,0
2016-09-12T03:15:23.595Z,0
2016-09-12T03:15:44.161Z,0
2016-09-12T03:16:04.766Z,0
2016-09-12T03:16:25.623Z,0
2016-09-12T03:16:46.177Z,0
2016-09-12T03:17:06.878Z,0
2016-09-12T03:17:27.430Z,0
2016-09-12T03:17:48.010Z,0
2016-09-12T03:18:08.612Z,0
2016-09-12T03:18:29.203Z,0
2016-09-12T03:18:49.780Z,0
2016-09-12T03:19:10.399Z,0
2016-09-12T03:19:30.961Z,0
2016-09-12T03:19:51.677Z,0
2016-09-12T03:20:12.591Z,0
2016-09-12T03:20:33.380Z,0
2016-09-12T03:20:53.940Z,0
2016-09-12T03:21:14.804Z,0
2016-09-12T03:21:35.399Z,0
2016-09-12T03:21:55.941Z,0
2016-09-12T03:22:16.732Z,0
2016-09-12T03:22:37.299Z,0
2016-09-12T03:22:57.865Z,0
2016-09-12T03:23:18.539Z,0
2016-09-12T03:23:39.163Z,0
2016-09-12T03:23:59.692Z,0
2016-09-12T03:24:20.322Z,0
2016-09-12T03:24:41.016Z,0
2016-09-12T03:25:01.569Z,0
2016-09-12T03:25:22.249Z,0
2016-09-12T03:25:42.918Z,0
2016-09-12T03:26:03.834Z,0
2016-09-12T03:26:24.443Z,0
2016-09-12T03:26:45.073Z,0
2016-09-12T03:27:05.649Z,0
2016-09-12T03:27:26.290Z,0
2016-09-12T03:27:46.885Z,0
2016-09-12T03:28:07.838Z,0
2016-09-12T03:28:28.602Z,0
2016-09-12T03:28:49.223Z,0
2016-09-12T03:29:09.868Z,0
2016-09-12T03:29:30.591Z,0
2016-09-12T03:29:51.416Z,0
2016-09-12T03:30:13.138Z,0
2016-09-12T03:30:33.709Z,0
2016-09-12T03:30:54.261Z,0
2016-09-12T03:31:14.911Z,0
2016-09-12T03:31:35.497Z,0
2016-09-12T03:31:56.202Z,0
2016-09-12T03:32:17.114Z,0
2016-09-12T03:32:37.659Z,0
2016-09-12T03:32:58.218Z,0
2016-09-12T03:33:18.832Z,0
2016-09-12T03:33:39.399Z,0
2016-09-12T03:33:59.970Z,0
2016-09-12T03:34:20.554Z,0
2016-09-12T03:34:41.096Z,0
2016-09-12T03:35:01.697Z,0
2016-09-12T03:35:22.388Z,0
2016-09-12T03:35:42.994Z,0
2016-09-12T03:36:03.811Z,0
2016-09-12T03:36:24.594Z,0
2016-09-12T03:36:45.297Z,0
2016-09-12T03:37:05.898Z,0
2016-09-12T03:37:26.426Z,0
2016-09-12T03:37:47.503Z,0
2016-09-12T03:38:08.784Z,0
2016-09-12T03:38:29.389Z,0
2016-09-12T03:38:49.960Z,0
2016-09-12T03:39:10.982Z,0
2016-09-12T03:39:31.543Z,0
2016-09-12T03:39:52.081Z,0
2016-09-12T03:40:14.149Z,0
2016-09-12T03:40:34.771Z,0
2016-09-12T03:40:56.781Z,0
2016-09-12T03:41:17.415Z,0
2016-09-12T03:41:38.013Z,0
2016-09-12T03:41:58.733Z,0
2016-09-12T03:42:19.512Z,0
2016-09-12T03:42:40.124Z,0
2016-09-12T03:43:00.672Z,0
2016-09-12T03:43:21.258Z,0
2016-09-12T03:43:41.855Z,0
2016-09-12T03:44:02.438Z,0
2016-09-12T03:44:23.127Z,0
2016-09-12T03:44:43.694Z,0
2016-09-12T03:45:04.972Z,0
2016-09-12T03:45:25.597Z,0
2016-09-12T03:45:46.159Z,0
2016-09-12T03:46:06.732Z,0
2016-09-12T03:46:27.539Z,0
2016-09-12T03:46:48.154Z,0
2016-09-12T03:47:08.850Z,0
2016-09-12T03:47:29.569Z,0
2016-09-12T03:47:50.121Z,0
2016-09-12T03:48:10.891Z,0
2016-09-12T03:48:31.622Z,0
2016-09-12T03:48:52.239Z,0
2016-09-12T03:49:13.114Z,0
2016-09-12T03:49:33.681Z,0
2016-09-12T03:49:54.244Z,0
2016-09-12T03:50:15.205Z,0
2016-09-12T03:50:35.777Z,0
2016-09-12T03:50:56.369Z,0
2016-09-12T03:51:17.160Z,0
2016-09-12T03:51:37.834Z,0
2016-09-12T03:51:58.394Z,0
2016-09-12T03:52:19.335Z,0
2016-09-12T03:52:39.912Z,0
2016-09-12T03:53:00.527Z,0
2016-09-12T03:53:21.233Z,0
2016-09-12T03:53:41.822Z,0
2016-09-12T03:54:02.404Z,0
2016-09-12T03:54:23.029Z,0
2016-09-12T03:54:43.665Z,0
2016-09-12T03:55:04.311Z,0
2016-09-12T03:55:24.970Z,0
2016-09-12T03:55:45.518Z,0
2016-09-12T03:56:06.121Z,0
2016-09-12T03:56:27.083Z,0
2016-09-12T03:56:47.686Z,0
2016-09-12T03:57:08.544Z,0
2016-09-12T03:57:29.173Z,0
2016-09-12T03:57:49.844Z,0
2016-09-12T03:58:11.016Z,0
2016-09-12T03:58:31.684Z,0
2016-09-12T03:58:52.252Z,0
2016-09-12T03:59:12.979Z,0
2016-09-12T03:59:33.549Z,0
2016-09-12T03:59:54.116Z,0
2016-09-12T04:00:15.870Z,0
2016-09-12T04:00:36.479Z,0
2016-09-12T04:00:57.255Z,0
2016-09-12T04:01:17.872Z,0
2016-09-12T04:01:38.659Z,0
2016-09-12T04:01:59.284Z,4
2016-09-12T04:02:20.115Z,4
2016-09-12T04:02:40.668Z,4
2016-09-12T04:03:01.280Z,4
2016-09-12T04:03:21.900Z,4
2016-09-12T04:03:42.488Z,0
2016-09-12T04:04:03.088Z,0
2016-09-12T04:04:23.689Z,0
2016-09-12T04:04:44.260Z,0
2016-09-12T04:05:05.353Z,4
2016-09-12T04:05:26.050Z,4
2016-09-12T04:05:46.615Z,4
2016-09-12T04:06:07.152Z,4
2016-09-12T04:06:27.732Z,0
2016-09-12T04:06:48.295Z,4
2016-09-12T04:07:09.362Z,4
2016-09-12T04:07:29.966Z,4
2016-09-12T04:07:50.589Z,4
2016-09-12T04:08:11.822Z,8
2016-09-12T04:08:32.432Z,4
2016-09-12T04:08:53.033Z,4
2016-09-12T04:09:13.897Z,4
2016-09-12T04:09:34.487Z,8
2016-09-12T04:09:55.083Z,4
2016-09-12T04:10:15.765Z,8
2016-09-12T04:10:37.431Z,8
2016-09-12T04:10:57.981Z,8
2016-09-12T04:11:25.587Z,8
2016-09-12T04:11:46.561Z,8
2016-09-12T04:12:07.276Z,8
2016-09-12T04:12:27.849Z,12
2016-09-12T04:12:48.898Z,8
2016-09-12T04:13:10.086Z,12
2016-09-12T04:13:30.761Z,12
2016-09-12T04:13:51.424Z,12
2016-09-12T04:14:12.143Z,12
2016-09-12T04:14:32.769Z,12
2016-09-12T04:14:53.333Z,16
2016-09-12T04:15:16.045Z,16
2016-09-12T04:15:36.783Z,16
2016-09-12T04:15:57.677Z,20
2016-09-12T04:16:18.812Z,20
2016-09-12T04:16:39.423Z,20
2016-09-12T04:17:00.799Z,20
2016-09-12T04:17:21.970Z,20
2016-09-12T04:17:44.209Z,20
2016-09-12T04:18:06.757Z,24
2016-09-12T04:18:27.745Z,24
2016-09-12T04:18:48.307Z,28
2016-09-12T04:19:08.905Z,28
2016-09-12T04:19:29.530Z,28
2016-09-12T04:19:50.091Z,32
2016-09-12T04:20:10.867Z,32
2016-09-12T04:20:31.468Z,32
2016-09-12T04:20:52.039Z,40
2016-09-12T04:21:12.669Z,40
2016-09-12T04:21:33.319Z,40
2016-09-12T04:21:53.919Z,44
2016-09-12T04:22:14.529Z,44
2016-09-12T04:22:35.101Z,52
2016-09-12T04:22:56.313Z,52
2016-09-12T04:23:17.900Z,56
2016-09-12T04:23:38.685Z,56
2016-09-12T04:23:59.272Z,64
2016-09-12T04:24:19.981Z,64
2016-09-12T04:24:40.523Z,64
2016-09-12T04:25:01.088Z,68
2016-09-12T04:25:22.017Z,72
2016-09-12T04:25:42.575Z,76
2016-09-12T04:26:03.150Z,80
2016-09-12T04:26:23.824Z,84
2016-09-12T04:26:44.495Z,88
2016-09-12T04:27:05.129Z,88
2016-09-12T04:27:25.799Z,96
2016-09-12T04:27:46.405Z,100
2016-09-12T04:28:07.030Z,100
2016-09-12T04:28:27.801Z,108
2016-09-12T04:28:48.390Z,112
2016-09-12T04:29:08.964Z,116
2016-09-12T04:29:29.543Z,120
2016-09-12T04:29:50.153Z,124
2016-09-12T04:30:10.987Z,128
2016-09-12T04:30:31.608Z,136
2016-09-12T04:30:52.180Z,140
2016-09-12T04:31:15.677Z,144
2016-09-12T04:31:36.273Z,148
2016-09-12T04:31:56.851Z,156
2016-09-12T04:32:17.436Z,156
2016-09-12T04:32:38.157Z,164
2016-09-12T04:32:58.727Z,168
2016-09-12T04:33:19.478Z,172
2016-09-12T04:33:40.164Z,180
2016-09-12T04:34:01.436Z,188
2016-09-12T04:34:24.286Z,192
2016-09-12T04:34:44.829Z,200
2016-09-12T04:35:05.748Z,208
2016-09-12T04:35:26.338Z,212
2016-09-12T04:35:46.911Z,220
2016-09-12T04:36:07.481Z,224
2016-09-12T04:36:28.084Z,232
2016-09-12T04:36:48.798Z,236
2016-09-12T04:37:09.823Z,244
2016-09-12T04:37:30.642Z,252
2016-09-12T04:37:51.329Z,260
2016-09-12T04:38:12.071Z,264
2016-09-12T04:38:32.778Z,276
2016-09-12T04:38:53.565Z,280
2016-09-12T04:39:14.350Z,292
2016-09-12T04:39:35.172Z,300
2016-09-12T04:39:55.784Z,304
2016-09-12T04:40:16.385Z,312
2016-09-12T04:40:37.193Z,320
2016-09-12T04:40:57.837Z,332
2016-09-12T04:41:18.553Z,340
2016-09-12T04:41:39.165Z,348
2016-09-12T04:41:59.726Z,356
2016-09-12T04:42:20.587Z,368
2016-09-12T04:42:41.151Z,376
2016-09-12T04:43:01.780Z,384
2016-09-12T04:43:22.375Z,392
2016-09-12T04:43:43.038Z,404
2016-09-12T04:44:03.624Z,412
2016-09-12T04:44:24.224Z,424
2016-09-12T04:44:44.792Z,432
2016-09-12T04:45:05.403Z,444
2016-09-12T04:45:25.988Z,456
2016-09-12T04:45:46.610Z,464
2016-09-12T04:46:07.199Z,476
2016-09-12T04:46:27.777Z,484
2016-09-12T04:46:48.342Z,496
2016-09-12T04:47:08.912Z,512
2016-09-12T04:47:29.496Z,520
2016-09-12T04:47:50.204Z,532
2016-09-12T04:48:10.795Z,540
2016-09-12T04:48:31.451Z,552
2016-09-12T04:48:52.001Z,564
2016-09-12T04:49:12.770Z,580
2016-09-12T04:49:33.400Z,588
2016-09-12T04:49:54.151Z,600
2016-09-12T04:50:15.209Z,612
2016-09-12T04:50:36.093Z,628
2016-09-12T04:50:56.643Z,640
2016-09-12T04:51:17.519Z,652
2016-09-12T04:51:38.103Z,664
2016-09-12T04:51:58.729Z,676
2016-09-12T04:52:19.347Z,692
2016-09-12T04:52:39.977Z,704
2016-09-12T04:53:00.609Z,720
2016-09-12T04:53:21.447Z,732
2016-09-12T04:53:42.064Z,744
2016-09-12T04:54:03.794Z,760
2016-09-12T04:54:24.425Z,776
2016-09-12T04:54:45.228Z,788
2016-09-12T04:55:05.818Z,804
2016-09-12T04:55:26.418Z,812
2016-09-12T04:55:46.958Z,832
2016-09-12T04:56:07.519Z,844
2016-09-12T04:56:28.155Z,860
2016-09-12T04:56:48.741Z,872
2016-09-12T04:57:09.374Z,888
2016-09-12T04:57:29.962Z,904
2016-09-12T04:57:50.533Z,920
2016-09-12T04:58:11.127Z,932
2016-09-12T04:58:31.706Z,944
2016-09-12T04:58:52.291Z,960
2016-09-12T04:59:13.038Z,972
2016-09-12T04:59:33.582Z,988
2016-09-12T04:59:54.146Z,1000
2016-09-12T05:00:15.317Z,1020
2016-09-12T05:00:36.263Z,1032
2016-09-12T05:00:56.846Z,1044
2016-09-12T05:01:17.663Z,1060
2016-09-12T05:01:38.261Z,1072
2016-09-12T05:01:58.801Z,1088
2016-09-12T05:02:19.524Z,1100
2016-09-12T05:02:40.158Z,1112
2016-09-12T05:03:00.897Z,1128
2016-09-12T05:03:21.484Z,1140
2016-09-12T05:03:42.037Z,1156
2016-09-12T05:04:02.676Z,1172
2016-09-12T05:04:23.304Z,1180